Impacts METAR Board INFO
IDs:

KTPA - Tampa Intl Arpt, FL, US

Updated at: 1457 UTC 16 Jan 2018
Potential Impact None Slight Moderate High
Time16/02Z 16/03Z 16/04Z 16/05Z 16/06Z 16/07Z 16/08Z 16/09Z 16/10Z 16/11Z 16/12Z 16/13Z 16/14Z
VIS10 10 10 10 10 10 10 10 10 10 10 10 10
CIG-- -- -- -- -- -- -- -- -- 65 -- -- --
CoverFEWFEWFEWFEWSCTSCTSCTSCTFEWBKNFEWFEWSCT
FltCatVFRVFRVFRVFRVFRVFRVFRVFRVFRVFRVFRVFRVFR
WX--------------------------
WDir40404050403030303040303030
WSpd7 7 6 6 5 7 7 7 7 7 7 5 6
WGst-- 15 -- -- -- -- -- -- -- -- -- -- --
Raw hourly METARs
KTPA 160153Z 04007KT 10SM FEW100 14/05 A3037 RMK AO2 SLP282 T01390050
KTPA 160253Z 04007G15KT 10SM FEW055 13/03 A3037 RMK AO2 SLP283 T01280033 51013
KTPA 160353Z 04006KT 10SM FEW060 12/03 A3037 RMK AO2 SLP285 T01170033
KTPA 160453Z 05006KT 10SM FEW055 11/04 A3037 RMK AO2 SLP285 T01060039 402110072
KTPA 160553Z 04005KT 10SM SCT060 10/04 A3036 RMK AO2 SLP280 T01000044 10167 20100 58003
KTPA 160653Z 03007KT 10SM SCT060 09/04 A3035 RMK AO2 SLP276 T00940044
KTPA 160753Z 03007KT 10SM SCT065 09/05 A3034 RMK AO2 SLP274 T00940050
KTPA 160853Z 03007KT 10SM SCT065 09/06 A3034 RMK AO2 SLP273 T00940056 56006
KTPA 160953Z 03007KT 10SM FEW070 09/06 A3034 RMK AO2 SLP273 T00940056
KTPA 161053Z 04007KT 10SM BKN065 10/06 A3035 RMK AO2 SLP278 T01000061
KTPA 161153Z 03007KT 10SM FEW065 09/06 A3035 RMK AO2 SLP278 T00940061 10100 20089 53005
KTPA 161253Z 03005KT 10SM FEW060 10/06 A3037 RMK AO2 SLP283 T01000061
KTPA 161353Z 03006KT 10SM SCT065 12/08 A3038 RMK AO2 SLP286 T01220078